Main page
METAR-TAF:

METAR-TAF

Airports :

Resia Pass, Italy

latitude: 46-50N, longitude: 010-30E, elevation: 1800 m

Current weather observation

The report was made 1 hour and 24 minutes ago, at 11:55 UTC
Wind 9 kt from the North/Northeast
Temperature 4°C
Humidity 38%
Pressure 1022 hPa
Visibility 10 km or more
no clouds below 1500 m and no cumulonimbus

METAR: LIVE 261155Z 03009KT CAVOK 04/M09 Q1022 RMK SKC VIS MIN 9999

Time: 14:19 (13:19 UTC)


TAF: missing

Weather observations and forecasts of more than 4000 airports (METAR and TAF reports).

The available stations are represented by yellow and red dots on the map.

Hover mouse over dot to see the name of the station.

Then click to see weather observations and forecasts.

To change the map : click on the green buttons with a black cross to zoom in, on the green button with a dash to zoom out, or on the green arrows for adjacent maps.


METAR-TAF: